createdAt,value
2022-10-10T00:01:20.937Z,100256.34
2022-10-10T00:04:08.589Z,100246.91
2022-10-10T00:06:56.417Z,100254.72
2022-10-10T00:09:44.334Z,100243.16
2022-10-10T00:12:32.047Z,100237.16
2022-10-10T00:15:19.954Z,100240.28
2022-10-10T00:18:07.923Z,100237.81
2022-10-10T00:20:55.946Z,100238.78
2022-10-10T00:23:44.039Z,100236.03
2022-10-10T00:26:31.921Z,100244.00
2022-10-10T00:29:19.763Z,100248.38
2022-10-10T00:32:07.628Z,100255.50
2022-10-10T00:34:55.445Z,100262.00
2022-10-10T00:37:43.249Z,100267.38
2022-10-10T00:45:28.819Z,100270.63
2022-10-10T00:48:22.976Z,100277.97
2022-10-10T00:51:17.946Z,100282.84
2022-10-10T00:54:10.057Z,100282.69
2022-10-10T00:57:04.736Z,100279.41
2022-10-10T00:59:53.731Z,100268.69
2022-10-10T01:02:41.954Z,100273.56
2022-10-10T01:05:30.371Z,100279.06
2022-10-10T01:08:19.726Z,100283.59
2022-10-10T01:11:32.461Z,100289.72
2022-10-10T01:14:35.823Z,100296.19
2022-10-10T01:17:41.991Z,100294.06
2022-10-10T01:20:51.348Z,100294.22
2022-10-10T01:23:54.521Z,100304.00
2022-10-10T01:27:08.134Z,100312.13
2022-10-10T01:30:09.498Z,100316.00
2022-10-10T01:32:57.015Z,100306.03
2022-10-10T01:35:47.655Z,100315.00
2022-10-10T01:38:54.871Z,100328.78
2022-10-10T01:42:04.940Z,100330.25
2022-10-10T01:44:54.268Z,100333.69
2022-10-10T01:47:41.905Z,100335.16
2022-10-10T01:50:38.714Z,100341.53
2022-10-10T01:53:31.992Z,100352.22
2022-10-10T01:56:19.742Z,100356.25
2022-10-10T02:00:02.091Z,100364.38
2022-10-10T02:03:10.337Z,100368.25
2022-10-10T02:06:10.086Z,100364.47
2022-10-10T02:09:07.303Z,100369.16
2022-10-10T02:11:56.587Z,100374.66
2022-10-10T02:14:48.477Z,100375.31
2022-10-10T02:17:39.522Z,100384.09
2022-10-10T02:20:30.579Z,100389.44
2022-10-10T02:23:21.556Z,100392.19
2022-10-10T02:26:12.959Z,100402.56
2022-10-10T02:29:16.588Z,100406.16
2022-10-10T02:32:16.775Z,100414.91
2022-10-10T02:35:09.494Z,100401.91
2022-10-10T02:38:00.299Z,100404.22
2022-10-10T02:40:50.242Z,100402.13
2022-10-10T02:43:38.701Z,100406.88
2022-10-10T02:46:26.379Z,100407.84
2022-10-10T02:49:14.375Z,100402.94
2022-10-10T02:52:02.606Z,100416.91
2022-10-10T02:54:50.318Z,100414.97
2022-10-10T02:57:38.163Z,100414.28
2022-10-10T03:00:26.560Z,100415.56
2022-10-10T03:03:14.233Z,100422.09
2022-10-10T03:06:02.869Z,100425.97
2022-10-10T03:08:50.487Z,100429.53
2022-10-10T03:11:38.054Z,100424.03
2022-10-10T03:14:25.918Z,100427.44
2022-10-10T03:17:13.940Z,100422.09
2022-10-10T03:20:01.940Z,100430.72
2022-10-10T03:22:51.781Z,100427.00
2022-10-10T03:25:43.766Z,100435.81
2022-10-10T03:28:31.894Z,100432.88
2022-10-10T03:31:19.510Z,100433.16
2022-10-10T03:34:07.464Z,100439.34
2022-10-10T03:36:55.135Z,100441.94
2022-10-10T03:39:43.265Z,100450.53
2022-10-10T03:42:30.905Z,100453.13
2022-10-10T03:45:19.142Z,100463.00
2022-10-10T03:48:06.912Z,100470.81
2022-10-10T03:50:54.703Z,100471.78
2022-10-10T03:53:44.222Z,100476.66
2022-10-10T03:56:31.891Z,100486.47
2022-10-10T03:59:19.806Z,100485.06
2022-10-10T04:02:07.824Z,100489.59
2022-10-10T04:04:55.473Z,100495.44
2022-10-10T04:07:43.569Z,100494.34
2022-10-10T04:10:31.648Z,100497.09
2022-10-10T04:13:20.801Z,100504.66
2022-10-10T04:16:08.842Z,100512.09
2022-10-10T04:18:56.528Z,100516.13
2022-10-10T04:21:45.020Z,100513.44
2022-10-10T04:24:33.340Z,100521.00
2022-10-10T04:27:21.159Z,100522.50
2022-10-10T04:30:09.879Z,100521.44
2022-10-10T04:32:57.903Z,100520.84
2022-10-10T04:35:48.536Z,100532.75
2022-10-10T04:38:36.398Z,100535.53
2022-10-10T04:41:24.344Z,100534.88
2022-10-10T04:44:12.029Z,100537.13
2022-10-10T04:46:59.899Z,100543.97
2022-10-10T04:49:47.971Z,100547.22
2022-10-10T04:52:36.133Z,100556.72
2022-10-10T04:55:24.345Z,100561.03
2022-10-10T04:58:12.583Z,100576.03
2022-10-10T05:01:00.833Z,100567.91
2022-10-10T05:03:48.479Z,100579.91
2022-10-10T05:06:36.617Z,100581.59
2022-10-10T05:09:24.548Z,100587.91
2022-10-10T05:12:12.211Z,100587.41
2022-10-10T05:15:00.188Z,100584.72
2022-10-10T05:17:47.867Z,100585.59
2022-10-10T05:20:37.217Z,100599.03
2022-10-10T05:23:24.899Z,100604.75
2022-10-10T05:26:12.879Z,100595.25
2022-10-10T05:29:01.944Z,100597.22
2022-10-10T05:31:49.755Z,100599.72
2022-10-10T05:34:38.020Z,100603.28
2022-10-10T05:37:25.687Z,100602.59
2022-10-10T05:40:13.632Z,100614.53
2022-10-10T05:43:01.771Z,100605.66
2022-10-10T05:45:49.466Z,100604.72
2022-10-10T05:48:37.341Z,100612.63
2022-10-10T05:51:25.495Z,100618.56
2022-10-10T05:54:13.173Z,100611.19
2022-10-10T05:57:01.316Z,100619.13
2022-10-10T05:59:48.942Z,100616.06
2022-10-10T06:02:36.792Z,100620.50
2022-10-10T06:05:25.426Z,100621.72
2022-10-10T06:08:13.021Z,100623.66
2022-10-10T06:11:04.807Z,100640.06
2022-10-10T06:13:54.425Z,100639.91
2022-10-10T06:16:45.491Z,100643.84
2022-10-10T06:19:33.184Z,100648.88
2022-10-10T06:22:21.517Z,100647.63
2022-10-10T06:25:23.989Z,100646.75
2022-10-10T06:28:17.513Z,100654.94
2022-10-10T06:31:08.462Z,100664.75
2022-10-10T06:33:56.212Z,100663.94
2022-10-10T06:36:44.059Z,100661.78
2022-10-10T06:39:32.058Z,100663.03
2022-10-10T06:42:20.167Z,100668.63
2022-10-10T06:45:14.080Z,100665.22
2022-10-10T06:48:02.170Z,100667.81
2022-10-10T06:51:03.996Z,100672.34
2022-10-10T06:53:52.175Z,100673.97
2022-10-10T06:56:39.743Z,100663.97
2022-10-10T06:59:27.965Z,100669.84
2022-10-10T07:02:15.679Z,100672.16
2022-10-10T07:05:03.714Z,100676.53
2022-10-10T07:07:52.575Z,100670.47
2022-10-10T07:10:40.222Z,100674.81
2022-10-10T07:13:28.605Z,100670.97
2022-10-10T07:16:16.191Z,100672.59
2022-10-10T07:19:05.139Z,100679.72
2022-10-10T07:21:53.255Z,100674.38
2022-10-10T07:24:41.387Z,100672.16
2022-10-10T07:27:29.282Z,100675.16
2022-10-10T07:30:17.394Z,100673.91
2022-10-10T07:33:10.630Z,100667.84
2022-10-10T07:35:58.505Z,100674.06
2022-10-10T07:38:51.917Z,100670.06
2022-10-10T07:41:39.783Z,100667.31
2022-10-10T07:44:31.202Z,100670.31
2022-10-10T07:47:21.832Z,100676.19
2022-10-10T07:50:11.856Z,100671.41
2022-10-10T07:53:00.222Z,100671.56
2022-10-10T07:55:48.159Z,100671.25
2022-10-10T07:58:36.773Z,100668.22
2022-10-10T08:01:25.017Z,100674.97
2022-10-10T08:04:13.111Z,100678.59
2022-10-10T08:07:01.025Z,100672.94
2022-10-10T08:09:48.912Z,100685.94
2022-10-10T08:12:36.925Z,100681.28
2022-10-10T08:15:26.091Z,100684.53
2022-10-10T08:18:16.073Z,100692.19
2022-10-10T08:21:06.690Z,100683.41
2022-10-10T08:23:55.734Z,100677.13
2022-10-10T08:26:43.356Z,100688.03
2022-10-10T08:29:33.255Z,100684.31
2022-10-10T08:32:21.143Z,100685.00
2022-10-10T08:35:09.263Z,100689.56
2022-10-10T08:37:57.077Z,100685.72
2022-10-10T08:40:50.722Z,100684.81
2022-10-10T08:43:47.635Z,100690.41
2022-10-10T08:46:44.782Z,100684.53
2022-10-10T08:49:37.661Z,100690.41
2022-10-10T08:52:33.234Z,100678.06
2022-10-10T08:55:31.263Z,100690.09
2022-10-10T08:58:21.042Z,100686.53
2022-10-10T09:01:28.673Z,100689.94
2022-10-10T09:04:19.840Z,100693.06
2022-10-10T09:07:41.331Z,100694.53
2022-10-10T09:10:57.368Z,100703.53
2022-10-10T09:14:03.952Z,100687.63
2022-10-10T09:17:17.329Z,100694.81
2022-10-10T09:20:18.807Z,100692.84
2022-10-10T09:23:28.669Z,100702.84
2022-10-10T09:26:22.092Z,100705.16
2022-10-10T09:29:25.885Z,100705.34
2022-10-10T09:32:24.778Z,100700.47
2022-10-10T09:35:34.792Z,100717.75
2022-10-10T09:38:34.616Z,100711.88
2022-10-10T09:41:59.652Z,100717.69
2022-10-10T09:44:47.560Z,100708.25
2022-10-10T09:47:35.810Z,100716.75
2022-10-10T09:50:27.624Z,100699.47
2022-10-10T09:53:17.309Z,100710.53
2022-10-10T09:56:06.027Z,100711.06
2022-10-10T09:58:56.060Z,100711.56
2022-10-10T10:02:02.017Z,100707.69
2022-10-10T10:04:51.238Z,100711.63
2022-10-10T10:07:48.424Z,100712.44
2022-10-10T10:10:38.172Z,100701.19
2022-10-10T10:13:33.047Z,100717.66
2022-10-10T10:16:29.511Z,100715.06
2022-10-10T10:19:34.150Z,100722.03
2022-10-10T10:22:46.947Z,100715.06
2022-10-10T10:25:37.853Z,100715.56
2022-10-10T10:28:26.069Z,100709.34
2022-10-10T10:31:52.160Z,100717.56
2022-10-10T10:34:54.048Z,100715.59
2022-10-10T10:37:50.637Z,100710.41
2022-10-10T10:41:01.306Z,100703.53
2022-10-10T10:44:04.022Z,100712.34
2022-10-10T10:47:18.627Z,100704.38
2022-10-10T10:50:50.625Z,100705.84
2022-10-10T10:53:51.542Z,100706.53
2022-10-10T10:56:53.023Z,100719.69
2022-10-10T11:00:22.050Z,100720.34
2022-10-10T11:05:20.168Z,100715.44
2022-10-10T11:07:20.295Z,100720.00
2022-10-10T11:10:27.655Z,100721.13
2022-10-10T11:13:24.399Z,100716.22
2022-10-10T11:16:36.683Z,100721.72
2022-10-10T11:19:38.312Z,100723.53
2022-10-10T11:22:31.962Z,100716.16
2022-10-10T11:25:26.139Z,100717.16
2022-10-10T11:28:29.470Z,100718.78
2022-10-10T11:31:42.688Z,100711.78
2022-10-10T11:34:33.633Z,100710.66
2022-10-10T11:37:27.750Z,100713.28
2022-10-10T11:40:32.507Z,100714.84
2022-10-10T11:43:35.409Z,100711.72
2022-10-10T11:46:47.559Z,100721.31
2022-10-10T11:50:07.262Z,100720.00
2022-10-10T11:53:17.697Z,100713.31
2022-10-10T11:56:12.398Z,100716.88
2022-10-10T11:59:24.296Z,100715.09
2022-10-10T12:02:25.703Z,100713.31
2022-10-10T12:05:24.863Z,100707.94
2022-10-10T12:08:22.428Z,100713.22
2022-10-10T12:11:18.735Z,100718.25
2022-10-10T12:14:10.189Z,100716.47
2022-10-10T12:16:58.816Z,100714.16
2022-10-10T12:19:48.849Z,100709.78
2022-10-10T12:22:36.794Z,100709.47
2022-10-10T12:25:37.060Z,100711.47
2022-10-10T12:29:02.334Z,100718.41
2022-10-10T12:32:30.358Z,100713.25
2022-10-10T12:35:29.365Z,100715.41
2022-10-10T12:38:21.043Z,100725.16
2022-10-10T12:41:11.876Z,100725.16
2022-10-10T12:44:22.361Z,100727.22
2022-10-10T12:47:15.964Z,100727.50
2022-10-10T12:50:21.973Z,100735.44
2022-10-10T12:53:12.509Z,100733.75
2022-10-10T12:56:02.622Z,100730.81
2022-10-10T12:58:50.691Z,100724.28
2022-10-10T13:01:46.679Z,100725.34
2022-10-10T13:04:34.683Z,100733.13
2022-10-10T13:07:24.956Z,100728.81
2022-10-10T13:10:23.025Z,100727.84
2022-10-10T13:13:13.979Z,100732.16
2022-10-10T13:16:14.550Z,100727.53
2022-10-10T13:19:02.552Z,100731.09
2022-10-10T13:21:55.680Z,100730.69
2022-10-10T13:24:44.336Z,100726.13
2022-10-10T13:27:35.231Z,100729.88
2022-10-10T13:30:25.211Z,100732.22
2022-10-10T13:33:22.212Z,100732.66
2022-10-10T13:36:20.946Z,100732.22
2022-10-10T13:39:15.614Z,100737.19
2022-10-10T13:42:06.359Z,100740.00
2022-10-10T13:44:55.336Z,100739.81
2022-10-10T13:47:49.677Z,100737.63
2022-10-10T13:50:43.583Z,100738.78
2022-10-10T13:53:44.260Z,100740.97
2022-10-10T13:56:41.399Z,100743.25
2022-10-10T13:59:30.266Z,100743.28
2022-10-10T14:02:25.384Z,100746.91
2022-10-10T14:05:26.215Z,100749.81
2022-10-10T14:08:18.603Z,100754.41
2022-10-10T14:11:08.659Z,100754.91
2022-10-10T14:14:17.237Z,100750.28
2022-10-10T14:17:05.941Z,100756.06
2022-10-10T14:19:53.925Z,100756.97
2022-10-10T14:22:41.824Z,100771.06
2022-10-10T14:25:30.023Z,100766.03
2022-10-10T14:28:25.331Z,100770.47
2022-10-10T14:31:13.339Z,100771.41
2022-10-10T14:34:01.240Z,100766.53
2022-10-10T14:36:50.677Z,100768.63
2022-10-10T14:39:38.310Z,100764.72
2022-10-10T14:42:26.587Z,100768.31
2022-10-10T14:45:16.579Z,100777.78
2022-10-10T14:48:04.673Z,100783.84
2022-10-10T14:50:52.560Z,100785.63
2022-10-10T14:53:40.528Z,100782.38
2022-10-10T14:57:09.185Z,100779.94
2022-10-10T14:59:48.629Z,100781.31
2022-10-10T15:02:42.006Z,100785.97
2022-10-10T15:05:32.229Z,100790.88
2022-10-10T15:08:20.318Z,100786.13
2022-10-10T15:11:08.199Z,100791.56
2022-10-10T15:13:57.341Z,100795.81
2022-10-10T15:16:45.121Z,100793.06
2022-10-10T15:19:33.037Z,100786.22
2022-10-10T15:22:20.976Z,100793.75
2022-10-10T15:25:09.870Z,100804.91
2022-10-10T15:27:58.821Z,100791.63
2022-10-10T15:30:46.942Z,100795.19
2022-10-10T15:33:34.870Z,100801.88
2022-10-10T15:36:23.117Z,100808.31
2022-10-10T15:39:11.568Z,100800.91
2022-10-10T15:42:08.000Z,100803.09
2022-10-10T15:44:59.888Z,100802.66
2022-10-10T15:47:47.606Z,100809.34
2022-10-10T15:50:39.260Z,100813.13
2022-10-10T15:53:29.047Z,100804.94
2022-10-10T15:56:17.210Z,100807.66
2022-10-10T15:59:05.636Z,100801.31
2022-10-10T16:01:54.741Z,100805.72
2022-10-10T16:04:42.978Z,100802.16
2022-10-10T16:07:34.642Z,100812.13
2022-10-10T16:10:26.403Z,100807.88
2022-10-10T16:13:14.119Z,100806.50
2022-10-10T16:16:04.357Z,100810.19
2022-10-10T16:18:52.890Z,100807.84
2022-10-10T16:21:40.976Z,100809.47
2022-10-10T16:24:29.031Z,100806.69
2022-10-10T16:27:16.795Z,100814.03
2022-10-10T16:30:06.369Z,100812.94
2022-10-10T16:32:54.054Z,100818.53
2022-10-10T16:35:42.243Z,100814.53
2022-10-10T16:38:29.880Z,100815.25
2022-10-10T16:41:42.525Z,100818.63
2022-10-10T16:44:26.367Z,100823.88
2022-10-10T16:47:14.215Z,100817.22
2022-10-10T16:50:02.643Z,100817.72
2022-10-10T16:52:51.356Z,100828.38
2022-10-10T16:55:40.693Z,100827.81
2022-10-10T16:58:29.972Z,100829.97
2022-10-10T17:01:20.870Z,100838.09
2022-10-10T17:04:09.135Z,100837.53
2022-10-10T17:06:57.019Z,100833.81
2022-10-10T17:09:46.310Z,100834.75
2022-10-10T17:12:34.078Z,100835.00
2022-10-10T17:15:22.611Z,100836.34
2022-10-10T17:18:10.477Z,100835.50
2022-10-10T17:20:58.830Z,100841.38
2022-10-10T17:23:47.415Z,100839.63
2022-10-10T17:26:35.259Z,100839.69
2022-10-10T17:29:23.732Z,100842.38
2022-10-10T17:32:12.468Z,100840.03
2022-10-10T17:35:00.403Z,100853.03
2022-10-10T17:37:48.518Z,100850.69
2022-10-10T17:40:39.509Z,100846.09
2022-10-10T17:43:27.608Z,100848.47
2022-10-10T17:46:40.104Z,100845.31
2022-10-10T17:49:28.521Z,100851.88
2022-10-10T17:52:20.928Z,100850.69
2022-10-10T17:55:09.307Z,100845.13
2022-10-10T17:57:59.252Z,100844.81
2022-10-10T18:00:47.374Z,100852.09
2022-10-10T18:03:35.563Z,100846.22
2022-10-10T18:06:23.918Z,100855.78
2022-10-10T18:09:12.152Z,100856.47
2022-10-10T18:11:59.938Z,100848.59
2022-10-10T18:14:48.350Z,100860.81
2022-10-10T18:17:35.969Z,100853.66
2022-10-10T18:20:24.396Z,100854.84
2022-10-10T18:23:12.125Z,100858.00
2022-10-10T18:26:11.431Z,100861.16
2022-10-10T18:28:59.745Z,100860.22
2022-10-10T18:31:47.506Z,100850.72
2022-10-10T18:34:35.328Z,100863.91
2022-10-10T18:37:23.250Z,100861.31
2022-10-10T18:40:12.096Z,100857.47
2022-10-10T18:42:59.899Z,100855.56
2022-10-10T18:45:49.505Z,100856.66
2022-10-10T18:48:38.641Z,100854.88
2022-10-10T18:51:29.685Z,100861.13
2022-10-10T18:54:18.401Z,100859.00
2022-10-10T18:57:06.492Z,100851.72
2022-10-10T18:59:55.172Z,100850.78
2022-10-10T19:02:43.372Z,100847.38
2022-10-10T19:05:30.936Z,100848.91
2022-10-10T19:08:18.997Z,100847.25
2022-10-10T19:11:08.185Z,100847.72
2022-10-10T19:13:58.280Z,100843.72
2022-10-10T19:16:47.877Z,100847.59
2022-10-10T19:19:36.943Z,100838.44
2022-10-10T19:22:25.097Z,100835.06
2022-10-10T19:25:13.240Z,100843.72
2022-10-10T19:28:01.120Z,100837.16
2022-10-10T19:30:50.077Z,100832.34
2022-10-10T19:33:38.003Z,100842.56
2022-10-10T19:36:26.737Z,100840.91
2022-10-10T19:39:14.626Z,100840.63
2022-10-10T19:42:02.731Z,100845.59
2022-10-10T19:44:52.339Z,100843.72
2022-10-10T19:47:40.175Z,100842.66
2022-10-10T19:50:27.999Z,100840.78
2022-10-10T19:53:18.074Z,100838.09
2022-10-10T19:56:20.503Z,100839.97
2022-10-10T19:59:08.719Z,100830.22
2022-10-10T20:01:56.381Z,100830.81
2022-10-10T20:04:45.247Z,100836.44
2022-10-10T20:07:32.899Z,100829.84
2022-10-10T20:10:20.746Z,100826.31
2022-10-10T20:13:12.642Z,100818.06
2022-10-10T20:16:03.367Z,100826.50
2022-10-10T20:18:51.704Z,100822.63
2022-10-10T20:21:39.549Z,100823.06
2022-10-10T20:24:27.547Z,100830.41
2022-10-10T20:27:15.795Z,100808.81
2022-10-10T20:30:04.547Z,100822.16
2022-10-10T20:32:52.415Z,100815.78
2022-10-10T20:35:39.997Z,100820.94
2022-10-10T20:38:28.148Z,100812.03
2022-10-10T20:41:16.045Z,100816.88
2022-10-10T20:44:05.645Z,100815.34
2022-10-10T20:46:53.506Z,100807.84
2022-10-10T20:49:41.355Z,100805.44
2022-10-10T20:52:28.930Z,100793.50
2022-10-10T20:55:16.751Z,100802.44
2022-10-10T20:58:04.538Z,100803.31
2022-10-10T21:01:07.891Z,100809.19
2022-10-10T21:03:55.905Z,100800.59
2022-10-10T21:06:43.836Z,100804.72
2022-10-10T21:09:32.811Z,100812.59
2022-10-10T21:12:20.967Z,100799.56
2022-10-10T21:15:09.279Z,100799.91
2022-10-10T21:17:58.159Z,100801.69
2022-10-10T21:20:45.722Z,100797.56
2022-10-10T21:23:36.663Z,100804.13
2022-10-10T21:26:26.511Z,100803.09
2022-10-10T21:29:14.792Z,100804.13
2022-10-10T21:32:02.717Z,100796.16
2022-10-10T21:34:54.368Z,100798.53
2022-10-10T21:37:45.527Z,100797.47
2022-10-10T21:40:37.303Z,100787.97
2022-10-10T21:43:24.886Z,100802.31
2022-10-10T21:46:15.579Z,100789.28
2022-10-10T21:49:06.839Z,100783.78
2022-10-10T21:51:54.662Z,100789.41
2022-10-10T21:54:42.458Z,100794.78
2022-10-10T21:57:31.047Z,100791.59
2022-10-10T22:00:19.574Z,100796.28
2022-10-10T22:03:07.652Z,100793.09
2022-10-10T22:05:55.223Z,100795.22
2022-10-10T22:08:44.036Z,100791.41
2022-10-10T22:11:32.896Z,100788.34
2022-10-10T22:14:20.620Z,100795.25
2022-10-10T22:17:08.437Z,100785.38
2022-10-10T22:19:56.364Z,100796.66
2022-10-10T22:22:45.701Z,100789.03
2022-10-10T22:25:33.348Z,100788.31
2022-10-10T22:28:21.592Z,100788.91
2022-10-10T22:31:13.174Z,100786.09
2022-10-10T22:34:01.207Z,100783.63
2022-10-10T22:36:49.116Z,100783.88
2022-10-10T22:39:37.798Z,100783.34
2022-10-10T22:42:25.474Z,100787.00
2022-10-10T22:45:13.255Z,100788.88
2022-10-10T22:48:00.974Z,100781.44
2022-10-10T22:50:57.985Z,100781.78
2022-10-10T22:53:47.230Z,100788.81
2022-10-10T22:56:35.296Z,100787.16
2022-10-10T22:59:22.829Z,100776.97
2022-10-10T23:02:10.912Z,100782.09
2022-10-10T23:04:59.582Z,100785.00
2022-10-10T23:07:47.648Z,100781.81
2022-10-10T23:10:35.393Z,100783.81
2022-10-10T23:13:23.374Z,100772.66
2022-10-10T23:16:12.335Z,100779.69
2022-10-10T23:18:59.896Z,100773.00
2022-10-10T23:21:47.679Z,100774.88
2022-10-10T23:24:37.630Z,100771.47
2022-10-10T23:27:25.678Z,100766.50
2022-10-10T23:30:13.619Z,100759.69
2022-10-10T23:33:01.783Z,100773.19
2022-10-10T23:36:03.864Z,100761.28
2022-10-10T23:38:52.621Z,100765.66
2022-10-10T23:41:40.744Z,100759.09
2022-10-10T23:44:28.634Z,100761.97
2022-10-10T23:47:16.723Z,100762.94
2022-10-10T23:50:04.715Z,100751.91
2022-10-10T23:52:52.522Z,100758.91
2022-10-10T23:55:40.561Z,100760.28
2022-10-10T23:58:28.749Z,100752.03
